Terminal Aerodrome Forecast
Issued by NWS Blacksburg, VA

Current Version | Previous Version | Text Only | Print | Product List | Glossary Off
Versions: 1 2 3 4 5 6 7 8 9 10 11 12 13 14 15 16 17 18 19 20 21 22 23

000
FTUS41 KRNK 282342
TAFBLF
TAF
KBLF 282342Z 2900/2924 23007KT P6SM SCT080 OVC250
     FM290400 25008G16KT P6SM -SHRA BKN050 OVC080
      TEMPO 2908/2912 5SM -SHRA BR BKN025 OVC050
     FM291300 29015G25KT P6SM -RA BKN015 OVC025
     FM291700 29015G25KT P6SM BKN023=

USA.gov is the U.S. government's official web portal to all federal, state and local government web resources and services.